sensor_id;sensor_type;location;lat;lon;timestamp;P1;durP1;ratioP1;P2;durP2;ratioP2
67804;SDS011;54603;45.638;11.714;2023-03-15T00:01:39;3.00;;;2.50;;
67804;SDS011;54603;45.638;11.714;2023-03-15T00:04:05;6.00;;;2.50;;
67804;SDS011;54603;45.638;11.714;2023-03-15T00:06:31;5.40;;;2.70;;
67804;SDS011;54603;45.638;11.714;2023-03-15T00:09:00;2.80;;;2.30;;
67804;SDS011;54603;45.638;11.714;2023-03-15T00:11:26;5.40;;;2.70;;
67804;SDS011;54603;45.638;11.714;2023-03-15T00:13:55;3.60;;;2.40;;
67804;SDS011;54603;45.638;11.714;2023-03-15T00:16:21;3.40;;;2.40;;
67804;SDS011;54603;45.638;11.714;2023-03-15T00:18:52;2.80;;;2.40;;
67804;SDS011;54603;45.638;11.714;2023-03-15T00:21:18;3.30;;;2.80;;
67804;SDS011;54603;45.638;11.714;2023-03-15T00:23:44;2.90;;;2.40;;
67804;SDS011;54603;45.638;11.714;2023-03-15T00:26:10;3.70;;;2.60;;
67804;SDS011;54603;45.638;11.714;2023-03-15T00:28:36;2.90;;;2.60;;
67804;SDS011;54603;45.638;11.714;2023-03-15T00:31:07;2.90;;;2.30;;
67804;SDS011;54603;45.638;11.714;2023-03-15T00:33:36;3.10;;;2.40;;
67804;SDS011;54603;45.638;11.714;2023-03-15T00:36:03;3.80;;;2.60;;
67804;SDS011;54603;45.638;11.714;2023-03-15T00:38:30;3.70;;;2.60;;
67804;SDS011;54603;45.638;11.714;2023-03-15T00:40:56;3.10;;;2.40;;
67804;SDS011;54603;45.638;11.714;2023-03-15T00:43:21;2.30;;;2.10;;
67804;SDS011;54603;45.638;11.714;2023-03-15T00:45:47;3.40;;;2.20;;
67804;SDS011;54603;45.638;11.714;2023-03-15T00:48:13;4.10;;;2.40;;
67804;SDS011;54603;45.638;11.714;2023-03-15T00:50:38;3.30;;;2.70;;
67804;SDS011;54603;45.638;11.714;2023-03-15T00:53:04;2.70;;;2.20;;
67804;SDS011;54603;45.638;11.714;2023-03-15T00:55:29;3.90;;;2.50;;
67804;SDS011;54603;45.638;11.714;2023-03-15T00:57:55;3.80;;;2.60;;
67804;SDS011;54603;45.638;11.714;2023-03-15T01:00:21;3.40;;;2.50;;
67804;SDS011;54603;45.638;11.714;2023-03-15T01:02:48;5.10;;;2.40;;
67804;SDS011;54603;45.638;11.714;2023-03-15T01:05:15;2.90;;;2.40;;
67804;SDS011;54603;45.638;11.714;2023-03-15T01:07:40;3.70;;;2.60;;
67804;SDS011;54603;45.638;11.714;2023-03-15T01:10:09;3.40;;;2.60;;
67804;SDS011;54603;45.638;11.714;2023-03-15T01:12:35;3.00;;;2.40;;
67804;SDS011;54603;45.638;11.714;2023-03-15T01:15:02;3.50;;;2.30;;
67804;SDS011;54603;45.638;11.714;2023-03-15T01:17:30;3.00;;;2.50;;
67804;SDS011;54603;45.638;11.714;2023-03-15T01:19:57;2.80;;;2.50;;
67804;SDS011;54603;45.638;11.714;2023-03-15T01:22:23;3.20;;;2.40;;
67804;SDS011;54603;45.638;11.714;2023-03-15T01:24:49;3.20;;;2.60;;
67804;SDS011;54603;45.638;11.714;2023-03-15T01:27:15;3.60;;;2.50;;
67804;SDS011;54603;45.638;11.714;2023-03-15T01:29:40;4.90;;;2.80;;
67804;SDS011;54603;45.638;11.714;2023-03-15T01:32:06;4.10;;;2.50;;
67804;SDS011;54603;45.638;11.714;2023-03-15T01:34:32;2.90;;;2.50;;
67804;SDS011;54603;45.638;11.714;2023-03-15T01:36:58;3.50;;;2.60;;
67804;SDS011;54603;45.638;11.714;2023-03-15T01:39:24;3.10;;;2.60;;
67804;SDS011;54603;45.638;11.714;2023-03-15T01:41:50;3.10;;;2.80;;
67804;SDS011;54603;45.638;11.714;2023-03-15T01:44:16;3.60;;;2.70;;
67804;SDS011;54603;45.638;11.714;2023-03-15T01:46:42;3.30;;;2.60;;
67804;SDS011;54603;45.638;11.714;2023-03-15T01:49:10;2.90;;;2.50;;
67804;SDS011;54603;45.638;11.714;2023-03-15T01:51:40;3.70;;;2.60;;
67804;SDS011;54603;45.638;11.714;2023-03-15T01:54:18;4.40;;;2.60;;
67804;SDS011;54603;45.638;11.714;2023-03-15T01:56:56;3.60;;;2.70;;
67804;SDS011;54603;45.638;11.714;2023-03-15T01:59:26;3.80;;;2.50;;
67804;SDS011;54603;45.638;11.714;2023-03-15T02:01:54;3.00;;;2.60;;
67804;SDS011;54603;45.638;11.714;2023-03-15T02:04:22;3.20;;;2.70;;
67804;SDS011;54603;45.638;11.714;2023-03-15T02:06:51;2.90;;;2.60;;
67804;SDS011;54603;45.638;11.714;2023-03-15T02:09:23;3.80;;;2.80;;
67804;SDS011;54603;45.638;11.714;2023-03-15T02:11:52;3.30;;;2.80;;
67804;SDS011;54603;45.638;11.714;2023-03-15T02:14:17;4.20;;;2.60;;
67804;SDS011;54603;45.638;11.714;2023-03-15T02:16:43;3.00;;;2.60;;
67804;SDS011;54603;45.638;11.714;2023-03-15T02:19:10;3.60;;;2.80;;
67804;SDS011;54603;45.638;11.714;2023-03-15T02:21:59;3.20;;;2.70;;
67804;SDS011;54603;45.638;11.714;2023-03-15T02:24:46;4.00;;;2.70;;
67804;SDS011;54603;45.638;11.714;2023-03-15T02:30:11;5.00;;;2.80;;
67804;SDS011;54603;45.638;11.714;2023-03-15T02:32:37;3.70;;;2.70;;
67804;SDS011;54603;45.638;11.714;2023-03-15T02:35:03;3.30;;;2.70;;
67804;SDS011;54603;45.638;11.714;2023-03-15T02:37:29;3.30;;;2.70;;
67804;SDS011;54603;45.638;11.714;2023-03-15T02:39:55;3.10;;;2.70;;
67804;SDS011;54603;45.638;11.714;2023-03-15T02:42:20;3.40;;;2.80;;
67804;SDS011;54603;45.638;11.714;2023-03-15T02:44:47;3.40;;;2.70;;
67804;SDS011;54603;45.638;11.714;2023-03-15T02:47:15;3.00;;;2.70;;
67804;SDS011;54603;45.638;11.714;2023-03-15T02:49:44;3.70;;;2.90;;
67804;SDS011;54603;45.638;11.714;2023-03-15T02:52:12;3.40;;;2.60;;
67804;SDS011;54603;45.638;11.714;2023-03-15T02:54:38;3.10;;;2.80;;
67804;SDS011;54603;45.638;11.714;2023-03-15T02:57:07;3.50;;;2.80;;
67804;SDS011;54603;45.638;11.714;2023-03-15T02:59:37;3.10;;;2.80;;
67804;SDS011;54603;45.638;11.714;2023-03-15T03:02:02;3.20;;;2.70;;
67804;SDS011;54603;45.638;11.714;2023-03-15T03:04:28;3.10;;;2.60;;
67804;SDS011;54603;45.638;11.714;2023-03-15T03:06:54;3.30;;;2.90;;
67804;SDS011;54603;45.638;11.714;2023-03-15T03:09:19;4.00;;;3.00;;
67804;SDS011;54603;45.638;11.714;2023-03-15T03:11:45;5.70;;;3.20;;
67804;SDS011;54603;45.638;11.714;2023-03-15T03:14:11;3.20;;;2.90;;
67804;SDS011;54603;45.638;11.714;2023-03-15T03:16:39;3.10;;;2.80;;
67804;SDS011;54603;45.638;11.714;2023-03-15T03:19:06;3.50;;;2.80;;
67804;SDS011;54603;45.638;11.714;2023-03-15T03:21:33;3.30;;;2.90;;
67804;SDS011;54603;45.638;11.714;2023-03-15T03:23:58;2.90;;;2.70;;
67804;SDS011;54603;45.638;11.714;2023-03-15T03:26:24;2.90;;;2.60;;
67804;SDS011;54603;45.638;11.714;2023-03-15T03:28:52;4.50;;;2.90;;
67804;SDS011;54603;45.638;11.714;2023-03-15T03:31:19;4.00;;;3.00;;
67804;SDS011;54603;45.638;11.714;2023-03-15T03:33:46;3.30;;;2.90;;
67804;SDS011;54603;45.638;11.714;2023-03-15T03:36:12;3.60;;;2.80;;
67804;SDS011;54603;45.638;11.714;2023-03-15T03:38:41;3.00;;;2.60;;
67804;SDS011;54603;45.638;11.714;2023-03-15T03:41:08;3.20;;;2.70;;
67804;SDS011;54603;45.638;11.714;2023-03-15T03:43:34;3.90;;;3.10;;
67804;SDS011;54603;45.638;11.714;2023-03-15T03:46:00;3.50;;;2.90;;
67804;SDS011;54603;45.638;11.714;2023-03-15T03:48:26;3.10;;;2.80;;
67804;SDS011;54603;45.638;11.714;2023-03-15T03:50:51;2.90;;;2.60;;
67804;SDS011;54603;45.638;11.714;2023-03-15T03:53:17;3.20;;;2.70;;
67804;SDS011;54603;45.638;11.714;2023-03-15T03:55:42;3.40;;;2.70;;
67804;SDS011;54603;45.638;11.714;2023-03-15T03:58:08;2.90;;;2.60;;
67804;SDS011;54603;45.638;11.714;2023-03-15T04:00:34;3.00;;;2.70;;
67804;SDS011;54603;45.638;11.714;2023-03-15T04:03:00;3.40;;;2.80;;
67804;SDS011;54603;45.638;11.714;2023-03-15T04:05:26;3.50;;;2.90;;
67804;SDS011;54603;45.638;11.714;2023-03-15T04:07:52;4.40;;;2.80;;
67804;SDS011;54603;45.638;11.714;2023-03-15T04:10:18;2.70;;;2.40;;
67804;SDS011;54603;45.638;11.714;2023-03-15T04:12:44;2.90;;;2.50;;
67804;SDS011;54603;45.638;11.714;2023-03-15T04:15:10;3.00;;;2.60;;
67804;SDS011;54603;45.638;11.714;2023-03-15T04:17:36;3.00;;;2.70;;
67804;SDS011;54603;45.638;11.714;2023-03-15T04:20:03;4.70;;;2.70;;
67804;SDS011;54603;45.638;11.714;2023-03-15T04:22:35;2.60;;;2.30;;
67804;SDS011;54603;45.638;11.714;2023-03-15T04:25:01;2.90;;;2.70;;
67804;SDS011;54603;45.638;11.714;2023-03-15T04:27:27;2.80;;;2.60;;
67804;SDS011;54603;45.638;11.714;2023-03-15T04:29:53;3.40;;;2.80;;
67804;SDS011;54603;45.638;11.714;2023-03-15T04:32:19;3.30;;;2.60;;
67804;SDS011;54603;45.638;11.714;2023-03-15T04:34:45;3.40;;;2.70;;
67804;SDS011;54603;45.638;11.714;2023-03-15T04:37:15;2.60;;;2.40;;
67804;SDS011;54603;45.638;11.714;2023-03-15T04:39:42;2.60;;;2.40;;
67804;SDS011;54603;45.638;11.714;2023-03-15T04:42:07;3.50;;;2.70;;
67804;SDS011;54603;45.638;11.714;2023-03-15T04:44:33;2.90;;;2.50;;
67804;SDS011;54603;45.638;11.714;2023-03-15T04:46:59;4.10;;;2.70;;
67804;SDS011;54603;45.638;11.714;2023-03-15T04:49:24;3.10;;;2.80;;
67804;SDS011;54603;45.638;11.714;2023-03-15T04:51:50;3.40;;;2.50;;
67804;SDS011;54603;45.638;11.714;2023-03-15T04:54:15;3.50;;;2.70;;
67804;SDS011;54603;45.638;11.714;2023-03-15T04:56:41;3.10;;;2.70;;
67804;SDS011;54603;45.638;11.714;2023-03-15T04:59:07;3.70;;;3.00;;
67804;SDS011;54603;45.638;11.714;2023-03-15T05:01:32;2.80;;;2.40;;
67804;SDS011;54603;45.638;11.714;2023-03-15T05:03:58;3.20;;;2.60;;
67804;SDS011;54603;45.638;11.714;2023-03-15T05:06:24;3.50;;;2.90;;
67804;SDS011;54603;45.638;11.714;2023-03-15T05:08:49;3.50;;;2.80;;
67804;SDS011;54603;45.638;11.714;2023-03-15T05:11:15;2.80;;;2.60;;
67804;SDS011;54603;45.638;11.714;2023-03-15T05:13:41;2.80;;;2.40;;
67804;SDS011;54603;45.638;11.714;2023-03-15T05:16:06;3.10;;;2.80;;
67804;SDS011;54603;45.638;11.714;2023-03-15T05:18:32;3.10;;;2.50;;
67804;SDS011;54603;45.638;11.714;2023-03-15T05:20:58;3.30;;;2.70;;
67804;SDS011;54603;45.638;11.714;2023-03-15T05:23:23;3.20;;;2.50;;
67804;SDS011;54603;45.638;11.714;2023-03-15T05:25:50;3.50;;;2.70;;
67804;SDS011;54603;45.638;11.714;2023-03-15T05:28:18;2.90;;;2.60;;
67804;SDS011;54603;45.638;11.714;2023-03-15T05:30:45;2.80;;;2.60;;
67804;SDS011;54603;45.638;11.714;2023-03-15T05:33:11;2.70;;;2.50;;
67804;SDS011;54603;45.638;11.714;2023-03-15T05:35:36;3.30;;;2.80;;
67804;SDS011;54603;45.638;11.714;2023-03-15T05:38:02;3.20;;;2.60;;
67804;SDS011;54603;45.638;11.714;2023-03-15T05:40:28;2.60;;;2.40;;
67804;SDS011;54603;45.638;11.714;2023-03-15T05:42:54;3.40;;;2.80;;
67804;SDS011;54603;45.638;11.714;2023-03-15T05:45:20;3.60;;;2.60;;
67804;SDS011;54603;45.638;11.714;2023-03-15T05:47:46;2.60;;;2.40;;
67804;SDS011;54603;45.638;11.714;2023-03-15T05:50:12;2.80;;;2.60;;
67804;SDS011;54603;45.638;11.714;2023-03-15T05:52:37;2.60;;;2.40;;
67804;SDS011;54603;45.638;11.714;2023-03-15T05:55:03;2.90;;;2.40;;
67804;SDS011;54603;45.638;11.714;2023-03-15T06:02:41;3.30;;;2.70;;
67804;SDS011;54603;45.638;11.714;2023-03-15T06:05:08;2.70;;;2.50;;
67804;SDS011;54603;45.638;11.714;2023-03-15T06:07:33;3.00;;;2.60;;
67804;SDS011;54603;45.638;11.714;2023-03-15T06:09:59;3.10;;;2.70;;
67804;SDS011;54603;45.638;11.714;2023-03-15T06:12:25;3.00;;;2.70;;
67804;SDS011;54603;45.638;11.714;2023-03-15T06:14:50;2.80;;;2.60;;
67804;SDS011;54603;45.638;11.714;2023-03-15T06:17:16;3.00;;;2.70;;
67804;SDS011;54603;45.638;11.714;2023-03-15T06:19:41;2.80;;;2.60;;
67804;SDS011;54603;45.638;11.714;2023-03-15T06:22:07;2.70;;;2.50;;
67804;SDS011;54603;45.638;11.714;2023-03-15T06:24:32;2.90;;;2.60;;
67804;SDS011;54603;45.638;11.714;2023-03-15T06:26:58;2.60;;;2.40;;
67804;SDS011;54603;45.638;11.714;2023-03-15T06:29:24;2.90;;;2.50;;
67804;SDS011;54603;45.638;11.714;2023-03-15T06:31:50;2.90;;;2.50;;
67804;SDS011;54603;45.638;11.714;2023-03-15T06:34:16;2.70;;;2.50;;
67804;SDS011;54603;45.638;11.714;2023-03-15T06:36:43;3.00;;;2.50;;
67804;SDS011;54603;45.638;11.714;2023-03-15T06:39:09;2.50;;;2.30;;
67804;SDS011;54603;45.638;11.714;2023-03-15T06:41:38;3.30;;;2.60;;
67804;SDS011;54603;45.638;11.714;2023-03-15T06:44:06;2.90;;;2.30;;
67804;SDS011;54603;45.638;11.714;2023-03-15T06:46:31;2.80;;;2.60;;
67804;SDS011;54603;45.638;11.714;2023-03-15T06:48:57;3.10;;;2.50;;
67804;SDS011;54603;45.638;11.714;2023-03-15T06:51:23;3.30;;;2.60;;
67804;SDS011;54603;45.638;11.714;2023-03-15T06:53:48;3.20;;;2.50;;
67804;SDS011;54603;45.638;11.714;2023-03-15T06:56:14;3.40;;;2.30;;
67804;SDS011;54603;45.638;11.714;2023-03-15T06:58:39;3.00;;;2.40;;
67804;SDS011;54603;45.638;11.714;2023-03-15T07:01:05;2.70;;;2.50;;
67804;SDS011;54603;45.638;11.714;2023-03-15T07:03:30;2.80;;;2.50;;
67804;SDS011;54603;45.638;11.714;2023-03-15T07:05:56;2.60;;;2.40;;
67804;SDS011;54603;45.638;11.714;2023-03-15T07:08:22;2.90;;;2.50;;
67804;SDS011;54603;45.638;11.714;2023-03-15T07:10:49;3.10;;;2.50;;
67804;SDS011;54603;45.638;11.714;2023-03-15T07:13:15;2.90;;;2.60;;
67804;SDS011;54603;45.638;11.714;2023-03-15T07:15:41;3.20;;;2.70;;
67804;SDS011;54603;45.638;11.714;2023-03-15T07:18:07;4.80;;;2.40;;
67804;SDS011;54603;45.638;11.714;2023-03-15T07:20:33;3.30;;;2.40;;
67804;SDS011;54603;45.638;11.714;2023-03-15T07:22:59;3.70;;;2.80;;
67804;SDS011;54603;45.638;11.714;2023-03-15T07:25:25;5.80;;;2.60;;
67804;SDS011;54603;45.638;11.714;2023-03-15T07:27:51;4.40;;;2.80;;
67804;SDS011;54603;45.638;11.714;2023-03-15T07:30:18;5.60;;;2.50;;
67804;SDS011;54603;45.638;11.714;2023-03-15T07:32:45;3.30;;;2.70;;
67804;SDS011;54603;45.638;11.714;2023-03-15T07:35:11;2.90;;;2.50;;
67804;SDS011;54603;45.638;11.714;2023-03-15T07:37:37;3.60;;;2.70;;
67804;SDS011;54603;45.638;11.714;2023-03-15T07:40:03;4.50;;;2.60;;
67804;SDS011;54603;45.638;11.714;2023-03-15T07:42:35;2.80;;;2.50;;
67804;SDS011;54603;45.638;11.714;2023-03-15T07:45:06;4.00;;;2.70;;
67804;SDS011;54603;45.638;11.714;2023-03-15T07:47:38;3.10;;;2.80;;
67804;SDS011;54603;45.638;11.714;2023-03-15T07:50:05;5.20;;;3.00;;
67804;SDS011;54603;45.638;11.714;2023-03-15T07:52:33;4.40;;;2.90;;
67804;SDS011;54603;45.638;11.714;2023-03-15T07:55:15;3.30;;;2.90;;
67804;SDS011;54603;45.638;11.714;2023-03-15T07:57:41;4.90;;;2.60;;
67804;SDS011;54603;45.638;11.714;2023-03-15T08:00:07;4.10;;;2.50;;
67804;SDS011;54603;45.638;11.714;2023-03-15T08:02:37;4.90;;;2.90;;
67804;SDS011;54603;45.638;11.714;2023-03-15T08:05:04;5.20;;;2.80;;
67804;SDS011;54603;45.638;11.714;2023-03-15T08:07:29;6.40;;;3.00;;
67804;SDS011;54603;45.638;11.714;2023-03-15T08:09:55;3.80;;;3.00;;
67804;SDS011;54603;45.638;11.714;2023-03-15T08:12:24;3.50;;;3.00;;
67804;SDS011;54603;45.638;11.714;2023-03-15T08:14:55;5.90;;;3.50;;
67804;SDS011;54603;45.638;11.714;2023-03-15T08:17:21;5.20;;;4.00;;
67804;SDS011;54603;45.638;11.714;2023-03-15T08:19:46;5.40;;;3.00;;
67804;SDS011;54603;45.638;11.714;2023-03-15T08:22:12;5.30;;;3.20;;
67804;SDS011;54603;45.638;11.714;2023-03-15T08:24:38;3.90;;;3.20;;
67804;SDS011;54603;45.638;11.714;2023-03-15T08:27:04;3.40;;;3.00;;
67804;SDS011;54603;45.638;11.714;2023-03-15T08:29:30;4.80;;;3.40;;
67804;SDS011;54603;45.638;11.714;2023-03-15T08:31:56;5.10;;;3.20;;
67804;SDS011;54603;45.638;11.714;2023-03-15T08:34:23;7.00;;;3.30;;
67804;SDS011;54603;45.638;11.714;2023-03-15T08:36:51;5.90;;;3.20;;
67804;SDS011;54603;45.638;11.714;2023-03-15T08:39:16;7.70;;;3.40;;
67804;SDS011;54603;45.638;11.714;2023-03-15T08:41:43;6.10;;;3.10;;
67804;SDS011;54603;45.638;11.714;2023-03-15T08:44:14;6.90;;;3.20;;
67804;SDS011;54603;45.638;11.714;2023-03-15T08:46:39;5.50;;;3.00;;
67804;SDS011;54603;45.638;11.714;2023-03-15T08:49:05;4.60;;;3.10;;
67804;SDS011;54603;45.638;11.714;2023-03-15T08:51:31;5.20;;;3.30;;
67804;SDS011;54603;45.638;11.714;2023-03-15T08:53:56;4.30;;;3.00;;
67804;SDS011;54603;45.638;11.714;2023-03-15T08:56:22;3.80;;;3.20;;
67804;SDS011;54603;45.638;11.714;2023-03-15T08:58:47;3.50;;;2.90;;
67804;SDS011;54603;45.638;11.714;2023-03-15T09:01:13;4.60;;;3.50;;
67804;SDS011;54603;45.638;11.714;2023-03-15T09:03:42;4.10;;;2.80;;
67804;SDS011;54603;45.638;11.714;2023-03-15T09:06:29;6.70;;;2.90;;
67804;SDS011;54603;45.638;11.714;2023-03-15T09:08:55;5.70;;;3.20;;
67804;SDS011;54603;45.638;11.714;2023-03-15T09:11:21;5.90;;;3.40;;
67804;SDS011;54603;45.638;11.714;2023-03-15T09:13:47;7.10;;;3.00;;
67804;SDS011;54603;45.638;11.714;2023-03-15T09:16:14;5.00;;;2.90;;
67804;SDS011;54603;45.638;11.714;2023-03-15T09:18:43;5.00;;;3.40;;
67804;SDS011;54603;45.638;11.714;2023-03-15T09:21:19;7.90;;;3.60;;
67804;SDS011;54603;45.638;11.714;2023-03-15T09:23:49;5.60;;;3.20;;
67804;SDS011;54603;45.638;11.714;2023-03-15T09:26:15;4.40;;;3.10;;
67804;SDS011;54603;45.638;11.714;2023-03-15T09:28:41;6.10;;;2.70;;
67804;SDS011;54603;45.638;11.714;2023-03-15T09:31:07;5.90;;;3.10;;
67804;SDS011;54603;45.638;11.714;2023-03-15T09:33:44;6.50;;;2.90;;
67804;SDS011;54603;45.638;11.714;2023-03-15T09:36:21;5.40;;;2.60;;
67804;SDS011;54603;45.638;11.714;2023-03-15T09:38:54;5.30;;;2.60;;
67804;SDS011;54603;45.638;11.714;2023-03-15T09:41:46;3.60;;;2.70;;
67804;SDS011;54603;45.638;11.714;2023-03-15T09:44:31;3.50;;;2.50;;
67804;SDS011;54603;45.638;11.714;2023-03-15T09:50:28;4.50;;;2.30;;
67804;SDS011;54603;45.638;11.714;2023-03-15T09:53:15;4.40;;;2.50;;
67804;SDS011;54603;45.638;11.714;2023-03-15T09:55:56;4.90;;;2.60;;
67804;SDS011;54603;45.638;11.714;2023-03-15T09:58:24;5.10;;;2.40;;
67804;SDS011;54603;45.638;11.714;2023-03-15T10:00:55;3.40;;;2.00;;
67804;SDS011;54603;45.638;11.714;2023-03-15T10:03:57;6.80;;;2.10;;
67804;SDS011;54603;45.638;11.714;2023-03-15T10:06:18;2.20;;;1.90;;
67804;SDS011;54603;45.638;11.714;2023-03-15T10:08:53;3.30;;;2.40;;
67804;SDS011;54603;45.638;11.714;2023-03-15T10:22:02;4.80;;;2.30;;
67804;SDS011;54603;45.638;11.714;2023-03-15T10:24:36;3.40;;;2.30;;
67804;SDS011;54603;45.638;11.714;2023-03-15T10:27:14;3.80;;;2.20;;
67804;SDS011;54603;45.638;11.714;2023-03-15T10:29:51;4.10;;;2.30;;
67804;SDS011;54603;45.638;11.714;2023-03-15T10:32:27;4.10;;;2.50;;
67804;SDS011;54603;45.638;11.714;2023-03-15T10:35:13;3.70;;;2.40;;
67804;SDS011;54603;45.638;11.714;2023-03-15T10:37:44;4.40;;;2.20;;
67804;SDS011;54603;45.638;11.714;2023-03-15T10:40:11;2.80;;;2.00;;
67804;SDS011;54603;45.638;11.714;2023-03-15T10:42:43;3.40;;;2.60;;
67804;SDS011;54603;45.638;11.714;2023-03-15T10:45:20;4.40;;;2.50;;
67804;SDS011;54603;45.638;11.714;2023-03-15T10:47:49;4.10;;;2.20;;
67804;SDS011;54603;45.638;11.714;2023-03-15T10:50:16;2.90;;;2.30;;
67804;SDS011;54603;45.638;11.714;2023-03-15T10:52:56;2.80;;;2.20;;
67804;SDS011;54603;45.638;11.714;2023-03-15T10:55:33;3.00;;;2.30;;
67804;SDS011;54603;45.638;11.714;2023-03-15T11:00:48;3.20;;;2.40;;
67804;SDS011;54603;45.638;11.714;2023-03-15T11:03:18;2.80;;;2.20;;
67804;SDS011;54603;45.638;11.714;2023-03-15T11:05:48;3.70;;;2.00;;
67804;SDS011;54603;45.638;11.714;2023-03-15T11:08:16;4.60;;;2.10;;
67804;SDS011;54603;45.638;11.714;2023-03-15T11:10:43;5.00;;;2.20;;
67804;SDS011;54603;45.638;11.714;2023-03-15T11:15:39;4.70;;;2.20;;
67804;SDS011;54603;45.638;11.714;2023-03-15T11:18:15;2.90;;;1.90;;
67804;SDS011;54603;45.638;11.714;2023-03-15T11:20:42;4.60;;;2.20;;
67804;SDS011;54603;45.638;11.714;2023-03-15T11:23:23;3.30;;;2.20;;
67804;SDS011;54603;45.638;11.714;2023-03-15T11:25:50;3.40;;;2.20;;
67804;SDS011;54603;45.638;11.714;2023-03-15T11:28:19;3.10;;;2.00;;
67804;SDS011;54603;45.638;11.714;2023-03-15T11:30:47;3.90;;;1.90;;
67804;SDS011;54603;45.638;11.714;2023-03-15T11:33:23;3.50;;;1.90;;
67804;SDS011;54603;45.638;11.714;2023-03-15T11:35:50;4.10;;;2.10;;
67804;SDS011;54603;45.638;11.714;2023-03-15T11:38:34;3.20;;;2.00;;
67804;SDS011;54603;45.638;11.714;2023-03-15T11:43:56;3.10;;;1.90;;
67804;SDS011;54603;45.638;11.714;2023-03-15T11:46:29;2.10;;;1.80;;
67804;SDS011;54603;45.638;11.714;2023-03-15T11:49:09;2.70;;;1.90;;
67804;SDS011;54603;45.638;11.714;2023-03-15T11:51:39;5.20;;;2.00;;
67804;SDS011;54603;45.638;11.714;2023-03-15T11:54:15;5.40;;;1.90;;
67804;SDS011;54603;45.638;11.714;2023-03-15T11:59:09;3.10;;;2.10;;
67804;SDS011;54603;45.638;11.714;2023-03-15T12:01:42;2.20;;;1.90;;
67804;SDS011;54603;45.638;11.714;2023-03-15T12:07:36;2.70;;;2.00;;
67804;SDS011;54603;45.638;11.714;2023-03-15T12:10:17;2.80;;;1.90;;
67804;SDS011;54603;45.638;11.714;2023-03-15T12:12:46;4.70;;;2.10;;
67804;SDS011;54603;45.638;11.714;2023-03-15T12:28:29;1.80;;;1.60;;
67804;SDS011;54603;45.638;11.714;2023-03-15T12:31:12;2.80;;;1.80;;
67804;SDS011;54603;45.638;11.714;2023-03-15T12:33:50;2.60;;;1.60;;
67804;SDS011;54603;45.638;11.714;2023-03-15T12:41:42;4.30;;;1.60;;
67804;SDS011;54603;45.638;11.714;2023-03-15T12:49:12;2.50;;;1.70;;
67804;SDS011;54603;45.638;11.714;2023-03-15T12:52:11;2.80;;;1.60;;
67804;SDS011;54603;45.638;11.714;2023-03-15T12:57:09;3.70;;;1.60;;
67804;SDS011;54603;45.638;11.714;2023-03-15T13:02:28;4.70;;;1.70;;
67804;SDS011;54603;45.638;11.714;2023-03-15T13:13:07;2.10;;;1.40;;
67804;SDS011;54603;45.638;11.714;2023-03-15T13:18:22;2.10;;;1.50;;
67804;SDS011;54603;45.638;11.714;2023-03-15T13:23:42;1.80;;;1.50;;
67804;SDS011;54603;45.638;11.714;2023-03-15T13:31:23;2.20;;;1.50;;
67804;SDS011;54603;45.638;11.714;2023-03-15T13:33:50;4.00;;;1.50;;
67804;SDS011;54603;45.638;11.714;2023-03-15T13:36:28;2.60;;;1.50;;
67804;SDS011;54603;45.638;11.714;2023-03-15T13:39:08;3.20;;;1.40;;
67804;SDS011;54603;45.638;11.714;2023-03-15T13:41:39;1.80;;;1.30;;
67804;SDS011;54603;45.638;11.714;2023-03-15T13:44:11;2.40;;;1.40;;
67804;SDS011;54603;45.638;11.714;2023-03-15T13:46:43;4.20;;;1.30;;
67804;SDS011;54603;45.638;11.714;2023-03-15T13:49:10;1.90;;;1.40;;
67804;SDS011;54603;45.638;11.714;2023-03-15T13:51:37;3.30;;;1.40;;
67804;SDS011;54603;45.638;11.714;2023-03-15T13:54:17;2.60;;;1.20;;
67804;SDS011;54603;45.638;11.714;2023-03-15T13:56:59;2.00;;;1.30;;
67804;SDS011;54603;45.638;11.714;2023-03-15T13:59:34;1.60;;;1.20;;
67804;SDS011;54603;45.638;11.714;2023-03-15T14:02:03;2.20;;;1.20;;
67804;SDS011;54603;45.638;11.714;2023-03-15T14:04:30;2.10;;;1.40;;
67804;SDS011;54603;45.638;11.714;2023-03-15T14:07:15;2.10;;;1.30;;
67804;SDS011;54603;45.638;11.714;2023-03-15T14:10:36;2.60;;;1.20;;
67804;SDS011;54603;45.638;11.714;2023-03-15T14:12:51;2.20;;;1.10;;
67804;SDS011;54603;45.638;11.714;2023-03-15T14:15:34;1.80;;;1.30;;
67804;SDS011;54603;45.638;11.714;2023-03-15T14:20:36;1.80;;;1.30;;
67804;SDS011;54603;45.638;11.714;2023-03-15T14:23:09;1.40;;;1.10;;
67804;SDS011;54603;45.638;11.714;2023-03-15T14:25:36;1.50;;;1.00;;
67804;SDS011;54603;45.638;11.714;2023-03-15T14:28:03;1.20;;;1.10;;
67804;SDS011;54603;45.638;11.714;2023-03-15T14:30:35;2.80;;;1.30;;
67804;SDS011;54603;45.638;11.714;2023-03-15T14:33:06;2.70;;;1.20;;
67804;SDS011;54603;45.638;11.714;2023-03-15T14:35:47;3.20;;;1.30;;
67804;SDS011;54603;45.638;11.714;2023-03-15T14:38:23;2.10;;;1.20;;
67804;SDS011;54603;45.638;11.714;2023-03-15T14:41:10;2.90;;;2.10;;
67804;SDS011;54603;45.638;11.714;2023-03-15T14:43:46;2.10;;;1.40;;
67804;SDS011;54603;45.638;11.714;2023-03-15T14:46:12;1.40;;;1.20;;
67804;SDS011;54603;45.638;11.714;2023-03-15T14:48:38;1.80;;;1.20;;
67804;SDS011;54603;45.638;11.714;2023-03-15T14:51:04;1.40;;;1.20;;
67804;SDS011;54603;45.638;11.714;2023-03-15T14:53:33;2.00;;;1.20;;
67804;SDS011;54603;45.638;11.714;2023-03-15T14:56:00;3.10;;;1.50;;
67804;SDS011;54603;45.638;11.714;2023-03-15T14:58:25;1.80;;;1.20;;
67804;SDS011;54603;45.638;11.714;2023-03-15T15:00:52;2.30;;;1.10;;
67804;SDS011;54603;45.638;11.714;2023-03-15T15:03:19;12.40;;;1.70;;
67804;SDS011;54603;45.638;11.714;2023-03-15T15:05:46;1.30;;;1.10;;
67804;SDS011;54603;45.638;11.714;2023-03-15T15:08:13;1.90;;;1.10;;
67804;SDS011;54603;45.638;11.714;2023-03-15T15:10:40;1.30;;;1.10;;
67804;SDS011;54603;45.638;11.714;2023-03-15T15:13:09;1.60;;;1.00;;
67804;SDS011;54603;45.638;11.714;2023-03-15T15:16:02;1.90;;;1.30;;
67804;SDS011;54603;45.638;11.714;2023-03-15T15:18:29;3.90;;;1.50;;
67804;SDS011;54603;45.638;11.714;2023-03-15T15:21:16;3.70;;;1.30;;
67804;SDS011;54603;45.638;11.714;2023-03-15T15:23:44;1.30;;;1.10;;
67804;SDS011;54603;45.638;11.714;2023-03-15T15:26:16;3.20;;;1.30;;
67804;SDS011;54603;45.638;11.714;2023-03-15T15:28:46;2.60;;;1.20;;
67804;SDS011;54603;45.638;11.714;2023-03-15T15:31:14;1.50;;;1.00;;
67804;SDS011;54603;45.638;11.714;2023-03-15T15:33:42;1.60;;;1.40;;
67804;SDS011;54603;45.638;11.714;2023-03-15T15:39:04;2.50;;;1.40;;
67804;SDS011;54603;45.638;11.714;2023-03-15T15:41:35;1.70;;;1.20;;
67804;SDS011;54603;45.638;11.714;2023-03-15T15:44:00;1.80;;;1.00;;
67804;SDS011;54603;45.638;11.714;2023-03-15T15:46:26;2.30;;;1.20;;
67804;SDS011;54603;45.638;11.714;2023-03-15T15:48:52;1.50;;;1.00;;
67804;SDS011;54603;45.638;11.714;2023-03-15T15:51:28;2.30;;;1.10;;
67804;SDS011;54603;45.638;11.714;2023-03-15T15:53:54;1.50;;;1.20;;
67804;SDS011;54603;45.638;11.714;2023-03-15T15:56:21;1.90;;;1.00;;
67804;SDS011;54603;45.638;11.714;2023-03-15T15:58:52;1.50;;;1.10;;
67804;SDS011;54603;45.638;11.714;2023-03-15T16:01:18;1.70;;;1.10;;
67804;SDS011;54603;45.638;11.714;2023-03-15T16:03:43;1.30;;;1.00;;
67804;SDS011;54603;45.638;11.714;2023-03-15T16:06:12;1.10;;;1.00;;
67804;SDS011;54603;45.638;11.714;2023-03-15T16:08:43;1.70;;;1.10;;
67804;SDS011;54603;45.638;11.714;2023-03-15T16:11:10;1.50;;;0.90;;
67804;SDS011;54603;45.638;11.714;2023-03-15T16:13:38;1.10;;;1.00;;